createdAt,value
2022-11-04T00:02:05.566Z,3.40
2022-11-04T00:04:35.032Z,3.63
2022-11-04T00:07:23.155Z,6.03
2022-11-04T00:09:51.221Z,5.23
2022-11-04T00:12:27.298Z,4.10
2022-11-04T00:15:15.341Z,5.80
2022-11-04T00:17:42.419Z,7.17
2022-11-04T00:20:29.918Z,6.90
2022-11-04T00:23:15.382Z,3.40
2022-11-04T00:26:01.045Z,4.50
2022-11-04T00:28:44.120Z,6.23
2022-11-04T00:31:29.746Z,6.20
2022-11-04T00:33:59.690Z,3.27
2022-11-04T00:36:29.047Z,3.27
2022-11-04T00:38:57.064Z,2.67
2022-11-04T00:41:28.182Z,2.70
2022-11-04T00:43:57.551Z,6.07
2022-11-04T00:46:25.584Z,5.13
2022-11-04T00:48:53.652Z,3.93
2022-11-04T00:51:21.902Z,3.50
2022-11-04T00:53:51.943Z,7.57
2022-11-04T00:56:20.017Z,4.40
2022-11-04T00:58:49.762Z,3.37
2022-11-04T01:01:19.013Z,2.63
2022-11-04T01:03:47.557Z,3.10
2022-11-04T01:06:15.932Z,4.47
2022-11-04T01:08:44.076Z,6.10
2022-11-04T01:11:13.598Z,7.43
2022-11-04T01:13:42.347Z,5.60
2022-11-04T01:16:11.849Z,3.03
2022-11-04T01:18:40.996Z,4.80
2022-11-04T01:21:11.396Z,8.50
2022-11-04T01:23:39.432Z,6.97
2022-11-04T01:26:08.003Z,4.30
2022-11-04T01:28:37.672Z,4.77
2022-11-04T01:31:07.566Z,4.87
2022-11-04T01:33:35.857Z,7.50
2022-11-04T01:36:04.784Z,7.73
2022-11-04T01:38:32.821Z,8.13
2022-11-04T01:41:01.015Z,5.00
2022-11-04T01:43:46.330Z,6.63
2022-11-04T01:46:22.952Z,4.43
2022-11-04T01:48:51.523Z,7.83
2022-11-04T01:51:20.627Z,13.63
2022-11-04T01:53:50.508Z,6.57
2022-11-04T01:56:20.776Z,6.57
2022-11-04T01:58:54.535Z,7.27
2022-11-04T02:01:22.746Z,4.33
2022-11-04T02:03:54.358Z,9.30
2022-11-04T02:06:23.997Z,4.63
2022-11-04T02:08:52.358Z,10.07
2022-11-04T02:11:37.893Z,3.33
2022-11-04T02:14:07.321Z,7.40
2022-11-04T02:16:41.318Z,3.37
2022-11-04T02:19:31.131Z,6.43
2022-11-04T02:22:34.451Z,4.27
2022-11-04T02:25:33.312Z,8.73
2022-11-04T02:28:23.895Z,9.40
2022-11-04T02:30:59.134Z,5.83
2022-11-04T02:33:32.941Z,2.87
2022-11-04T02:36:04.476Z,4.90
2022-11-04T02:38:39.504Z,4.63
2022-11-04T02:41:16.148Z,5.10
2022-11-04T02:43:54.171Z,7.30
2022-11-04T02:46:32.326Z,10.33
2022-11-04T02:49:06.947Z,5.57
2022-11-04T02:51:41.279Z,5.03
2022-11-04T02:54:13.705Z,5.17
2022-11-04T02:56:47.042Z,3.37
2022-11-04T02:59:21.309Z,5.00
2022-11-04T03:01:53.388Z,5.70
2022-11-04T03:04:26.844Z,4.10
2022-11-04T03:06:57.407Z,4.90
2022-11-04T03:09:26.622Z,7.17
2022-11-04T03:12:01.291Z,5.57
2022-11-04T03:14:35.800Z,8.33
2022-11-04T03:17:10.459Z,8.37
2022-11-04T03:19:44.172Z,9.07
2022-11-04T03:22:15.031Z,8.80
2022-11-04T03:24:45.951Z,6.37
2022-11-04T03:27:23.824Z,6.97
2022-11-04T03:29:58.687Z,8.37
2022-11-04T03:32:37.876Z,4.37
2022-11-04T03:35:06.662Z,5.50
2022-11-04T03:37:35.157Z,6.50
2022-11-04T03:40:04.887Z,9.43
2022-11-04T03:42:35.975Z,7.97
2022-11-04T03:45:04.322Z,8.20
2022-11-04T03:47:33.854Z,9.00
2022-11-04T03:50:08.360Z,7.17
2022-11-04T03:52:37.413Z,8.23
2022-11-04T03:55:07.568Z,10.37
2022-11-04T03:57:49.657Z,6.93
2022-11-04T04:00:19.765Z,7.67
2022-11-04T04:03:04.030Z,8.87
2022-11-04T04:05:34.833Z,8.20
2022-11-04T04:08:14.583Z,9.30
2022-11-04T04:10:49.547Z,8.10
2022-11-04T04:13:27.037Z,6.80
2022-11-04T04:16:00.755Z,10.50
2022-11-04T04:18:37.876Z,7.83
2022-11-04T04:21:09.256Z,4.70
2022-11-04T04:23:56.387Z,5.57
2022-11-04T04:26:44.015Z,7.60
2022-11-04T04:29:12.782Z,7.23
2022-11-04T04:31:51.097Z,7.60
2022-11-04T04:34:22.957Z,6.37
2022-11-04T04:36:55.663Z,6.93
2022-11-04T04:39:46.490Z,6.10
2022-11-04T04:42:32.098Z,5.17
2022-11-04T04:45:04.057Z,6.17
2022-11-04T04:47:37.665Z,6.87
2022-11-04T04:50:08.454Z,6.60
2022-11-04T04:52:39.999Z,7.57
2022-11-04T04:55:09.653Z,7.87
2022-11-04T04:57:38.008Z,7.80
2022-11-04T05:00:08.350Z,6.80
2022-11-04T05:02:36.470Z,5.37
2022-11-04T05:05:06.438Z,4.80
2022-11-04T05:07:34.489Z,8.00
2022-11-04T05:10:02.447Z,6.43
2022-11-04T05:12:51.165Z,7.43
2022-11-04T05:15:19.083Z,11.30
2022-11-04T05:17:47.186Z,5.87
2022-11-04T05:20:16.780Z,7.77
2022-11-04T05:22:44.883Z,8.27
2022-11-04T05:25:13.061Z,7.03
2022-11-04T05:27:41.186Z,6.43
2022-11-04T05:30:10.074Z,6.83
2022-11-04T05:32:38.285Z,5.13
2022-11-04T05:35:07.208Z,12.97
2022-11-04T05:37:36.692Z,8.00
2022-11-04T05:40:05.182Z,7.27
2022-11-04T05:42:33.320Z,8.03
2022-11-04T05:45:01.348Z,9.80
2022-11-04T05:47:29.449Z,9.83
2022-11-04T05:49:57.468Z,8.87
2022-11-04T05:52:25.592Z,7.87
2022-11-04T05:54:55.050Z,12.13
2022-11-04T05:57:23.035Z,6.23
2022-11-04T05:59:51.144Z,6.37
2022-11-04T06:02:19.336Z,9.27
2022-11-04T06:04:47.584Z,6.23
2022-11-04T06:07:15.612Z,5.80
2022-11-04T06:09:43.606Z,6.33
2022-11-04T06:12:15.483Z,5.90
2022-11-04T06:14:44.247Z,7.10
2022-11-04T06:17:15.226Z,9.07
2022-11-04T06:19:43.612Z,7.27
2022-11-04T06:22:12.856Z,10.37
2022-11-04T06:24:41.125Z,12.53
2022-11-04T06:27:09.392Z,8.10
2022-11-04T06:29:41.337Z,8.77
2022-11-04T06:32:09.676Z,10.87
2022-11-04T06:34:37.901Z,9.43
2022-11-04T06:37:06.482Z,9.47
2022-11-04T06:39:34.548Z,10.63
2022-11-04T06:42:03.109Z,13.70
2022-11-04T06:44:31.465Z,9.40
2022-11-04T06:47:01.799Z,10.80
2022-11-04T06:49:29.934Z,9.50
2022-11-04T06:51:57.918Z,11.23
2022-11-04T06:54:26.040Z,11.50
2022-11-04T06:56:54.109Z,9.87
2022-11-04T06:59:24.003Z,11.90
2022-11-04T07:01:52.804Z,10.13
2022-11-04T07:04:22.290Z,11.37
2022-11-04T07:06:50.264Z,14.03
2022-11-04T07:09:18.569Z,10.93
2022-11-04T07:11:47.322Z,11.67
2022-11-04T07:14:15.723Z,11.40
2022-11-04T07:16:43.761Z,10.37
2022-11-04T07:19:11.773Z,11.37
2022-11-04T07:21:41.216Z,11.60
2022-11-04T07:24:09.451Z,13.90
2022-11-04T07:26:37.532Z,13.63
2022-11-04T07:29:06.844Z,14.73
2022-11-04T07:31:35.258Z,18.13
2022-11-04T07:34:03.308Z,11.33
2022-11-04T07:36:31.650Z,14.47
2022-11-04T07:39:01.089Z,20.23
2022-11-04T07:41:29.559Z,13.33
2022-11-04T07:43:58.969Z,11.40
2022-11-04T07:46:27.116Z,15.77
2022-11-04T07:48:58.583Z,13.43
2022-11-04T07:51:27.370Z,12.30
2022-11-04T07:53:56.622Z,11.87
2022-11-04T07:56:26.828Z,13.67
2022-11-04T07:58:55.098Z,12.30
2022-11-04T08:01:25.032Z,9.53
2022-11-04T08:03:53.660Z,15.20
2022-11-04T08:06:22.514Z,10.00
2022-11-04T08:08:53.926Z,13.57
2022-11-04T08:11:25.261Z,12.40
2022-11-04T08:13:55.353Z,13.20
2022-11-04T08:16:29.957Z,13.03
2022-11-04T08:19:02.391Z,9.27
2022-11-04T08:21:31.546Z,9.53
2022-11-04T08:23:59.732Z,9.00
2022-11-04T08:26:27.813Z,9.87
2022-11-04T08:28:57.280Z,11.83
2022-11-04T08:31:26.872Z,11.57
2022-11-04T08:33:55.843Z,10.20
2022-11-04T08:36:26.285Z,10.03
2022-11-04T08:38:55.000Z,8.10
2022-11-04T08:41:26.395Z,9.67
2022-11-04T08:43:54.512Z,10.33
2022-11-04T08:46:23.980Z,7.90
2022-11-04T08:48:51.990Z,9.00
2022-11-04T08:51:22.480Z,11.50
2022-11-04T08:53:50.989Z,8.07
2022-11-04T08:56:21.473Z,9.90
2022-11-04T08:58:50.177Z,7.93
2022-11-04T09:01:18.892Z,8.33
2022-11-04T09:03:49.034Z,8.03
2022-11-04T09:06:20.533Z,6.03
2022-11-04T09:08:49.348Z,7.00
2022-11-04T09:11:18.519Z,5.87
2022-11-04T09:13:46.906Z,6.53
2022-11-04T09:16:16.088Z,7.03
2022-11-04T09:18:44.365Z,6.10
2022-11-04T09:21:14.272Z,7.30
2022-11-04T09:23:42.257Z,6.83
2022-11-04T09:26:13.849Z,6.17
2022-11-04T09:28:42.771Z,10.47
2022-11-04T09:31:12.100Z,8.53
2022-11-04T09:33:40.696Z,5.60
2022-11-04T09:36:10.219Z,8.77
2022-11-04T09:38:41.050Z,6.63
2022-11-04T09:41:37.556Z,5.97
2022-11-04T09:44:15.465Z,5.70
2022-11-04T09:46:45.635Z,10.70
2022-11-04T09:49:16.572Z,5.87
2022-11-04T09:51:55.994Z,5.40
2022-11-04T09:54:28.014Z,5.60
2022-11-04T09:56:59.089Z,6.37
2022-11-04T09:59:33.348Z,8.27
2022-11-04T10:02:27.167Z,9.80
2022-11-04T10:05:05.482Z,6.23
2022-11-04T10:07:46.575Z,6.77
2022-11-04T10:10:23.640Z,5.83
2022-11-04T10:13:07.167Z,5.97
2022-11-04T10:15:48.839Z,7.97
2022-11-04T10:18:29.037Z,4.63
2022-11-04T10:21:02.147Z,7.30
2022-11-04T10:23:34.803Z,6.47
2022-11-04T10:26:15.873Z,5.17
2022-11-04T10:28:47.513Z,6.33
2022-11-04T10:31:18.766Z,8.60
2022-11-04T10:33:51.872Z,7.03
2022-11-04T10:36:21.308Z,4.93
2022-11-04T10:38:53.310Z,9.47
2022-11-04T10:41:31.814Z,8.40
2022-11-04T10:44:04.340Z,9.13
2022-11-04T10:46:44.472Z,6.27
2022-11-04T10:49:37.966Z,5.90
2022-11-04T10:52:07.272Z,10.07
2022-11-04T10:54:40.846Z,7.43
2022-11-04T10:57:12.118Z,7.60
2022-11-04T10:59:52.660Z,8.83
2022-11-04T11:02:41.370Z,6.90
2022-11-04T11:05:25.121Z,8.13
2022-11-04T11:07:55.848Z,7.90
2022-11-04T11:10:26.103Z,4.57
2022-11-04T11:13:02.192Z,6.67
2022-11-04T11:15:35.040Z,5.70
2022-11-04T11:18:19.122Z,6.90
2022-11-04T11:20:51.361Z,8.07
2022-11-04T11:23:38.269Z,5.93
2022-11-04T11:26:08.716Z,5.37
2022-11-04T11:28:40.597Z,6.23
2022-11-04T11:31:16.832Z,4.80
2022-11-04T11:33:54.786Z,7.80
2022-11-04T11:36:26.526Z,6.93
2022-11-04T11:39:01.441Z,7.33
2022-11-04T11:41:32.418Z,8.87
2022-11-04T11:44:05.858Z,4.20
2022-11-04T11:46:36.449Z,6.13
2022-11-04T11:49:06.564Z,5.77
2022-11-04T11:51:36.145Z,8.63
2022-11-04T11:54:22.827Z,6.37
2022-11-04T12:02:46.675Z,7.27
2022-11-04T12:11:16.195Z,5.80
2022-11-04T12:13:50.483Z,5.27
2022-11-04T12:16:30.671Z,5.93
2022-11-04T12:19:37.916Z,4.37
2022-11-04T12:22:14.833Z,4.37
2022-11-04T12:24:55.327Z,6.13
2022-11-04T12:27:33.747Z,3.43
2022-11-04T12:30:06.718Z,3.63
2022-11-04T12:32:47.752Z,3.37
2022-11-04T12:35:31.511Z,7.17
2022-11-04T12:38:14.057Z,8.20
2022-11-04T12:41:05.091Z,4.83
2022-11-04T12:43:47.190Z,3.27
2022-11-04T12:46:24.130Z,4.97
2022-11-04T12:49:14.236Z,3.70
2022-11-04T12:51:51.381Z,3.43
2022-11-04T12:54:33.543Z,4.37
2022-11-04T12:57:14.220Z,5.47
2022-11-04T12:59:55.226Z,5.80
2022-11-04T13:02:27.163Z,4.73
2022-11-04T13:05:03.194Z,5.80
2022-11-04T13:07:34.638Z,4.73
2022-11-04T13:10:08.264Z,5.53
2022-11-04T13:12:40.944Z,6.97
2022-11-04T13:15:17.290Z,6.27
2022-11-04T13:17:47.284Z,4.17
2022-11-04T13:20:24.378Z,5.27
2022-11-04T13:22:57.764Z,5.63
2022-11-04T13:25:32.251Z,7.17
2022-11-04T13:28:02.073Z,5.03
2022-11-04T13:30:37.743Z,6.63
2022-11-04T13:33:13.331Z,6.87
2022-11-04T13:35:51.116Z,7.87
2022-11-04T13:38:23.863Z,6.60
2022-11-04T13:41:11.762Z,7.50
2022-11-04T13:43:49.443Z,9.40
2022-11-04T13:46:24.801Z,7.57
2022-11-04T13:48:59.228Z,6.97
2022-11-04T13:51:39.513Z,9.83
2022-11-04T13:54:14.628Z,6.30
2022-11-04T13:56:43.090Z,7.43
2022-11-04T13:59:21.349Z,5.87
2022-11-04T14:01:50.118Z,4.53
2022-11-04T14:04:30.159Z,6.77
2022-11-04T14:07:01.803Z,9.00
2022-11-04T14:09:36.818Z,7.00
2022-11-04T14:12:35.604Z,5.77
2022-11-04T14:15:16.747Z,4.23
2022-11-04T14:18:09.096Z,5.37
2022-11-04T14:21:04.383Z,4.17
2022-11-04T14:23:34.791Z,8.20
2022-11-04T14:26:05.154Z,6.47
2022-11-04T14:28:34.347Z,6.37
2022-11-04T14:31:03.893Z,6.37
2022-11-04T14:33:54.209Z,4.07
2022-11-04T14:36:35.727Z,7.10
2022-11-04T14:39:09.249Z,4.13
2022-11-04T14:42:00.836Z,3.90
2022-11-04T14:44:35.375Z,4.40
2022-11-04T14:47:16.546Z,6.93
2022-11-04T14:49:47.662Z,4.87
2022-11-04T14:52:23.706Z,9.20
2022-11-04T14:54:58.133Z,7.43
2022-11-04T14:57:26.314Z,8.73
2022-11-04T14:59:54.354Z,5.10
2022-11-04T15:02:25.122Z,6.47
2022-11-04T15:04:58.668Z,5.23
2022-11-04T15:07:35.628Z,6.03
2022-11-04T15:10:19.843Z,4.83
2022-11-04T15:12:55.268Z,6.73
2022-11-04T15:15:37.123Z,6.10
2022-11-04T15:18:09.083Z,5.23
2022-11-04T15:20:42.397Z,6.73
2022-11-04T15:23:16.954Z,8.43
2022-11-04T15:25:50.883Z,12.90
2022-11-04T15:28:21.878Z,17.43
2022-11-04T15:31:17.191Z,16.50
2022-11-04T15:33:47.418Z,14.77
2022-11-04T15:36:19.727Z,20.47
2022-11-04T15:38:52.986Z,15.17
2022-11-04T15:41:41.964Z,16.17
2022-11-04T15:44:22.081Z,11.50
2022-11-04T15:46:51.864Z,10.90
2022-11-04T15:49:24.334Z,10.70
2022-11-04T15:51:54.937Z,10.43
2022-11-04T15:54:27.052Z,10.43
2022-11-04T15:56:58.305Z,11.03
2022-11-04T15:59:30.417Z,8.67
2022-11-04T16:01:58.971Z,10.50
2022-11-04T16:04:29.425Z,9.33
2022-11-04T16:07:22.854Z,6.27
2022-11-04T16:09:52.739Z,10.33
2022-11-04T16:12:30.733Z,7.40
2022-11-04T16:14:59.898Z,7.00
2022-11-04T16:17:29.594Z,8.67
2022-11-04T16:20:00.408Z,6.63
2022-11-04T16:22:31.688Z,7.93
2022-11-04T16:25:03.572Z,6.73
2022-11-04T16:27:36.969Z,5.57
2022-11-04T16:30:10.782Z,8.57
2022-11-04T16:32:43.912Z,7.33
2022-11-04T16:35:18.553Z,5.17
2022-11-04T16:37:47.143Z,6.93
2022-11-04T16:40:15.737Z,8.73
2022-11-04T16:42:46.025Z,9.60
2022-11-04T16:45:24.472Z,7.17
2022-11-04T16:47:53.002Z,11.07
2022-11-04T16:50:21.350Z,5.70
2022-11-04T16:52:49.403Z,8.23
2022-11-04T16:55:17.989Z,7.07
2022-11-04T16:57:47.867Z,7.67
2022-11-04T17:00:21.001Z,9.43
2022-11-04T17:02:49.669Z,7.63
2022-11-04T17:05:18.051Z,6.07
2022-11-04T17:07:54.280Z,6.47
2022-11-04T17:10:25.412Z,5.57
2022-11-04T17:12:55.101Z,8.97
2022-11-04T17:15:23.280Z,9.03
2022-11-04T17:17:51.258Z,7.87
2022-11-04T17:20:20.246Z,6.47
2022-11-04T17:22:49.047Z,8.37
2022-11-04T17:25:20.525Z,8.17
2022-11-04T17:27:48.807Z,9.73
2022-11-04T17:30:19.079Z,9.37
2022-11-04T17:32:47.887Z,7.40
2022-11-04T17:35:16.775Z,8.60
2022-11-04T17:37:45.548Z,10.23
2022-11-04T17:40:16.236Z,10.30
2022-11-04T17:43:04.421Z,7.60
2022-11-04T17:45:37.888Z,6.83
2022-11-04T17:48:06.776Z,7.47
2022-11-04T17:50:37.064Z,10.13
2022-11-04T17:53:05.459Z,6.60
2022-11-04T17:55:38.604Z,7.47
2022-11-04T17:58:06.612Z,9.43
2022-11-04T18:00:34.611Z,8.17
2022-11-04T18:03:04.064Z,12.17
2022-11-04T18:05:32.110Z,10.17
2022-11-04T18:08:01.880Z,11.17
2022-11-04T18:10:29.899Z,8.03
2022-11-04T18:12:57.912Z,9.77
2022-11-04T18:15:25.850Z,13.90
2022-11-04T18:17:54.102Z,10.57
2022-11-04T18:20:23.989Z,8.83
2022-11-04T18:22:52.077Z,10.93
2022-11-04T18:25:20.499Z,14.83
2022-11-04T18:27:49.051Z,10.20
2022-11-04T18:30:17.208Z,9.43
2022-11-04T18:32:45.169Z,10.80
2022-11-04T18:35:13.131Z,8.13
2022-11-04T18:37:47.093Z,9.87
2022-11-04T18:40:15.986Z,7.87
2022-11-04T18:42:44.289Z,9.13
2022-11-04T18:45:12.594Z,9.50
2022-11-04T18:47:40.499Z,7.07
2022-11-04T18:50:09.272Z,16.87
2022-11-04T18:52:40.492Z,25.90
2022-11-04T18:55:10.915Z,18.57
2022-11-04T18:57:39.050Z,11.90
2022-11-04T19:00:11.656Z,9.37
2022-11-04T19:02:43.067Z,10.40
2022-11-04T19:05:11.099Z,8.63
2022-11-04T19:07:39.628Z,7.87
2022-11-04T19:10:10.248Z,8.83
2022-11-04T19:12:55.607Z,9.27
2022-11-04T19:15:23.711Z,9.17
2022-11-04T19:17:51.677Z,8.80
2022-11-04T19:20:19.760Z,6.77
2022-11-04T19:22:47.865Z,11.37
2022-11-04T19:25:17.359Z,6.00
2022-11-04T19:27:45.431Z,9.27
2022-11-04T19:30:14.529Z,11.47
2022-11-04T19:32:42.676Z,10.27
2022-11-04T19:35:10.813Z,10.13
2022-11-04T19:37:39.042Z,11.40
2022-11-04T19:40:08.085Z,9.87
2022-11-04T19:42:54.949Z,7.53
2022-11-04T19:45:23.148Z,13.27
2022-11-04T19:47:51.453Z,11.40
2022-11-04T19:50:19.629Z,8.50
2022-11-04T19:52:47.841Z,10.33
2022-11-04T19:55:16.158Z,8.40
2022-11-04T19:57:45.689Z,9.17
2022-11-04T20:00:14.513Z,9.47
2022-11-04T20:02:43.290Z,9.27
2022-11-04T20:05:11.420Z,7.80
2022-11-04T20:07:39.833Z,10.53
2022-11-04T20:10:08.988Z,7.73
2022-11-04T20:12:55.158Z,8.17
2022-11-04T20:15:26.270Z,7.57
2022-11-04T20:17:54.314Z,9.43
2022-11-04T20:20:22.717Z,6.23
2022-11-04T20:22:50.822Z,13.07
2022-11-04T20:25:19.143Z,11.33
2022-11-04T20:27:47.194Z,8.73
2022-11-04T20:30:16.435Z,10.43
2022-11-04T20:32:45.963Z,9.20
2022-11-04T20:35:14.479Z,9.20
2022-11-04T20:37:43.197Z,10.73
2022-11-04T20:40:12.583Z,11.70
2022-11-04T20:42:47.748Z,13.27
2022-11-04T20:45:16.960Z,11.10
2022-11-04T20:47:46.408Z,11.10
2022-11-04T20:50:14.842Z,12.77
2022-11-04T20:52:43.015Z,11.50
2022-11-04T20:55:12.235Z,11.10
2022-11-04T20:57:40.257Z,11.70
2022-11-04T21:00:09.811Z,9.83
2022-11-04T21:02:38.400Z,8.10
2022-11-04T21:05:08.808Z,13.43
2022-11-04T21:07:37.059Z,10.73
2022-11-04T21:10:05.554Z,12.37
2022-11-04T21:12:33.679Z,12.80
2022-11-04T21:15:01.654Z,8.20
2022-11-04T21:17:29.721Z,9.23
2022-11-04T21:19:57.758Z,10.00
2022-11-04T21:22:29.837Z,12.43
2022-11-04T21:24:57.878Z,8.80
2022-11-04T21:27:26.248Z,5.80
2022-11-04T21:29:54.319Z,8.77
2022-11-04T21:32:22.444Z,10.30
2022-11-04T21:34:50.461Z,9.33
2022-11-04T21:37:18.541Z,11.80
2022-11-04T21:39:47.949Z,9.17
2022-11-04T21:42:15.996Z,7.60
2022-11-04T21:44:44.013Z,8.93
2022-11-04T21:47:12.009Z,7.20
2022-11-04T21:49:39.997Z,6.70
2022-11-04T21:52:08.124Z,6.13
2022-11-04T21:54:36.123Z,8.33
2022-11-04T21:57:05.651Z,8.17
2022-11-04T21:59:33.638Z,7.07
2022-11-04T22:02:01.700Z,7.20
2022-11-04T22:04:29.916Z,7.93
2022-11-04T22:06:58.184Z,6.93
2022-11-04T22:09:26.180Z,8.53
2022-11-04T22:11:54.269Z,7.10
2022-11-04T22:14:23.640Z,5.37
2022-11-04T22:16:51.701Z,5.47
2022-11-04T22:19:19.791Z,8.23
2022-11-04T22:21:48.146Z,5.73
2022-11-04T22:24:17.866Z,6.43
2022-11-04T22:26:47.714Z,6.50
2022-11-04T22:29:15.906Z,7.00
2022-11-04T22:31:45.350Z,8.57
2022-11-04T22:34:14.926Z,10.43
2022-11-04T22:36:42.975Z,6.50
2022-11-04T22:39:16.371Z,7.33
2022-11-04T22:41:46.313Z,4.63
2022-11-04T22:44:14.473Z,6.37
2022-11-04T22:46:42.866Z,7.93
2022-11-04T22:49:13.097Z,8.83
2022-11-04T22:51:41.078Z,7.20
2022-11-04T22:54:11.304Z,8.17
2022-11-04T22:56:39.425Z,8.67
2022-11-04T22:59:07.988Z,8.27
2022-11-04T23:01:36.145Z,8.20
2022-11-04T23:04:05.317Z,8.77
2022-11-04T23:06:34.732Z,6.73
2022-11-04T23:09:02.869Z,6.40
2022-11-04T23:11:50.131Z,4.93
2022-11-04T23:14:37.681Z,12.37
2022-11-04T23:17:33.363Z,7.40
2022-11-04T23:20:01.838Z,8.00
2022-11-04T23:22:48.493Z,5.43
2022-11-04T23:25:16.590Z,5.47
2022-11-04T23:28:04.419Z,7.37
2022-11-04T23:30:35.370Z,6.10
2022-11-04T23:33:05.869Z,20.87
2022-11-04T23:35:54.187Z,6.80
2022-11-04T23:38:24.740Z,6.80
2022-11-04T23:41:13.218Z,5.87
2022-11-04T23:43:41.234Z,9.03
2022-11-04T23:46:26.656Z,8.90
2022-11-04T23:49:12.175Z,8.50
2022-11-04T23:51:58.119Z,4.87
2022-11-04T23:54:45.205Z,10.67
2022-11-04T23:57:31.998Z,6.97
